Time;durP1;ratioP1;P1;durP2;ratioP2;P2;SDS_P1;SDS_P2;PMS_P1;PMS_P2;Temp;Humidity;BMP_temperature;BMP_pressure;BME280_temperature;BME280_humidity;BME280_pressure;Samples;Min_cycle;Max_cycle;Signal;HPM_P1;HPM_P2
2021/07/09 00:01:40;;;;;;;;;;;;;;;17.77;87.81;101718.72;5059761;28;20038;-72
2021/07/09 00:04:05;;;;;;;8.73;7.65;;;;;;;17.49;89.33;101716.88;5056536;28;19927;-72
2021/07/09 00:06:31;;;;;;;7.75;7.15;;;;;;;17.62;89.54;101723.53;5074900;28;20052;-72
2021/07/09 00:08:56;;;;;;;9.05;8.25;;;;;;;17.54;89.86;101720.25;5056685;28;20016;-72
2021/07/09 00:11:22;;;;;;;7.53;7.03;;;;;;;17.63;89.63;101720.00;5074204;28;20110;-72
2021/07/09 00:13:47;;;;;;;8.32;7.53;;;;;;;17.56;89.66;101715.78;5056267;28;20111;-72
2021/07/09 00:16:14;;;;;;;6.93;6.43;;;;;;;17.55;89.88;101714.91;5056757;28;20029;-72
2021/07/09 00:18:39;;;;;;;7.00;6.43;;;;;;;17.60;88.98;101708.63;5056524;28;20029;-72
2021/07/09 00:21:05;;;;;;;7.13;6.57;;;;;;;17.57;89.00;101712.22;5056467;28;20031;-72
2021/07/09 00:23:31;;;;;;;6.72;6.30;;;;;;;17.59;88.60;101707.78;5056212;28;20028;-72
2021/07/09 00:25:56;;;;;;;6.72;6.30;;;;;;;17.77;88.38;101701.06;5040101;28;20020;-72
2021/07/09 00:28:21;;;;;;;10.32;6.07;;;;;;;17.56;88.12;101692.88;5073934;28;20039;-72
2021/07/09 00:30:47;;;;;;;5.57;5.28;;;;;;;17.66;88.10;101698.75;5074418;28;20155;-72
2021/07/09 00:33:12;;;;;;;5.35;5.00;;;;;;;17.70;87.77;101703.03;5056194;28;20028;-72
2021/07/09 00:35:37;;;;;;;5.57;5.28;;;;;;;17.79;86.87;101704.53;5039670;28;20372;-72
2021/07/09 00:38:03;;;;;;;6.35;5.78;;;;;;;17.51;87.32;101699.22;5039737;28;20350;-72
2021/07/09 00:40:28;;;;;;;4.63;4.18;;;;;;;17.61;87.34;101698.03;5056190;28;20020;-72
2021/07/09 00:42:53;;;;;;;5.10;4.70;;;;;;;17.53;86.83;101695.63;5055779;28;20389;-72
2021/07/09 00:45:19;;;;;;;5.13;4.78;;;;;;;17.53;86.02;101693.00;5072854;28;20087;-72
2021/07/09 00:47:46;;;;;;;5.95;5.53;;;;;;;17.38;88.07;101694.31;5056422;28;20043;-72
2021/07/09 00:50:12;;;;;;;5.55;5.13;;;;;;;17.33;87.38;101696.19;5038884;28;20028;-72
2021/07/09 00:52:37;;;;;;;6.20;5.70;;;;;;;17.39;86.82;101700.44;5056054;28;20035;-72
2021/07/09 00:55:04;;;;;;;5.55;5.15;;;;;;;17.34;87.80;101697.94;5039659;28;20029;-72
2021/07/09 00:57:30;;;;;;;5.00;4.60;;;;;;;17.29;86.81;101698.94;5056228;28;20028;-72
2021/07/09 00:59:55;;;;;;;4.57;4.28;;;;;;;17.39;86.35;101708.34;5055597;28;20036;-72
2021/07/09 01:02:23;;;;;;;5.90;4.43;;;;;;;17.27;86.81;101701.63;5055787;28;20319;-72
2021/07/09 01:04:49;;;;;;;5.03;4.63;;;;;;;17.26;86.40;101709.59;5039498;28;20016;-72
2021/07/09 01:07:14;;;;;;;6.30;5.25;;;;;;;17.22;87.99;101700.94;5056034;28;20092;-71
2021/07/09 01:09:39;;;;;;;5.45;4.75;;;;;;;17.30;86.32;101705.97;5073973;28;20413;-72
2021/07/09 01:12:05;;;;;;;6.30;4.15;;;;;;;17.23;88.04;101705.28;5038605;28;20119;-71
2021/07/09 01:14:30;;;;;;;5.28;4.43;;;;;;;17.32;87.20;101705.03;5056089;28;20013;-72
2021/07/09 01:16:55;;;;;;;4.25;3.85;;;;;;;17.20;87.00;101715.94;5073658;28;20418;-72
2021/07/09 01:19:22;;;;;;;6.80;5.20;;;;;;;17.11;87.53;101705.63;5072890;28;20028;-72
2021/07/09 01:21:48;;;;;;;3.75;3.53;;;;;;;17.22;86.68;101703.56;5055379;28;20031;-72
2021/07/09 01:24:14;;;;;;;4.60;4.30;;;;;;;17.33;85.67;101704.13;5055777;28;20029;-72
2021/07/09 01:26:40;;;;;;;4.03;3.55;;;;;;;17.48;84.97;101700.19;5055683;28;20074;-72
2021/07/09 01:29:06;;;;;;;6.18;3.63;;;;;;;17.54;84.40;101693.84;5054945;28;20037;-72
2021/07/09 01:31:32;;;;;;;6.88;3.75;;;;;;;17.32;85.77;101689.19;5054388;28;20031;-72
2021/07/09 01:33:58;;;;;;;3.65;3.45;;;;;;;17.17;84.40;101689.63;5077537;28;20425;-72
2021/07/09 01:36:23;;;;;;;3.55;3.35;;;;;;;17.24;85.28;101686.75;5057728;28;20107;-72
2021/07/09 01:38:49;;;;;;;3.90;3.60;;;;;;;17.28;84.74;101687.53;5059498;28;20120;-72
2021/07/09 01:41:16;;;;;;;3.50;3.40;;;;;;;17.19;84.79;101682.50;5058728;28;20052;-72
2021/07/09 01:43:42;;;;;;;3.47;3.17;;;;;;;17.18;85.21;101680.81;5059948;28;20027;-72
2021/07/09 01:46:07;;;;;;;3.40;3.10;;;;;;;17.33;84.29;101668.91;5059203;28;20024;-71
2021/07/09 01:48:35;;;;;;;5.53;3.42;;;;;;;17.45;84.07;101672.97;5077142;28;20417;-72
2021/07/09 01:51:00;;;;;;;3.17;2.92;;;;;;;17.44;83.86;101672.13;5042688;28;20078;-71
2021/07/09 01:53:25;;;;;;;3.28;3.03;;;;;;;17.44;82.04;101680.03;5076669;28;20448;-72
2021/07/09 01:55:51;;;;;;;6.38;3.03;;;;;;;17.47;82.32;101687.00;5077000;28;20414;-72
2021/07/09 01:58:16;;;;;;;4.80;2.90;;;;;;;17.51;81.67;101686.00;5059040;28;20032;-72
2021/07/09 02:00:42;;;;;;;3.92;2.70;;;;;;;17.29;83.63;101680.47;5059256;28;20150;-72
2021/07/09 02:03:07;;;;;;;3.88;2.72;;;;;;;17.30;83.86;101677.81;5058547;28;20102;-71
2021/07/09 02:05:33;;;;;;;3.03;2.88;;;;;;;17.30;83.26;101675.16;5059102;28;20032;-72
2021/07/09 02:07:58;;;;;;;3.40;3.20;;;;;;;17.23;83.50;101692.06;5042280;28;20048;-72
2021/07/09 02:10:29;;;;;;;4.20;3.40;;;;;;;17.14;83.75;101687.94;5058810;28;20024;-72
2021/07/09 02:12:55;;;;;;;3.20;2.85;;;;;;;17.34;83.71;101687.38;5058860;28;20021;-72
2021/07/09 02:15:24;;;;;;;3.70;2.92;;;;;;;17.22;83.62;101698.28;5075730;28;20044;-72
2021/07/09 02:17:49;;;;;;;2.67;2.47;;;;;;;17.24;83.19;101702.59;5076420;28;20028;-72
2021/07/09 02:20:17;;;;;;;2.90;2.70;;;;;;;17.29;82.92;101707.75;5042124;28;20028;-72
2021/07/09 02:22:44;;;;;;;3.15;2.83;;;;;;;17.49;80.93;101711.59;5057978;28;20024;-72
2021/07/09 02:25:09;;;;;;;3.40;2.40;;;;;;;17.54;81.51;101714.97;5058730;28;20028;-72
2021/07/09 02:27:36;;;;;;;5.25;2.70;;;;;;;17.61;81.54;101719.16;5058794;28;20569;-72
2021/07/09 02:30:06;;;;;;;4.00;2.55;;;;;;;17.56;82.29;101718.41;5058604;28;20116;-72
2021/07/09 02:32:31;;;;;;;3.00;2.90;;;;;;;17.69;81.64;101718.94;5055269;28;20042;-72
2021/07/09 02:34:57;;;;;;;3.65;2.60;;;;;;;17.54;81.94;101713.19;5076103;28;20029;-72
2021/07/09 02:37:22;;;;;;;2.97;2.55;;;;;;;17.61;81.33;101705.94;5058427;28;20056;-72
2021/07/09 02:39:48;;;;;;;2.80;2.60;;;;;;;17.52;81.93;101706.22;5041458;28;20452;-72
2021/07/09 02:42:13;;;;;;;3.67;3.38;;;;;;;17.35;81.82;101707.56;5058053;28;20036;-71
2021/07/09 02:44:39;;;;;;;5.82;3.60;;;;;;;17.12;83.60;101707.34;5058009;28;20162;-72
2021/07/09 02:47:04;;;;;;;7.43;3.70;;;;;;;17.10;84.86;101703.88;5058203;28;20374;-72
2021/07/09 02:49:29;;;;;;;3.25;3.05;;;;;;;17.15;84.59;101699.34;5057852;28;20043;-71
2021/07/09 02:51:55;;;;;;;4.65;3.30;;;;;;;17.23;82.96;101700.88;5057712;28;20438;-71
2021/07/09 02:54:20;;;;;;;3.10;2.90;;;;;;;17.22;83.58;101703.56;5057983;28;20317;-71
2021/07/09 02:56:45;;;;;;;3.35;3.03;;;;;;;17.37;83.34;101697.84;5058237;28;20063;-71
2021/07/09 02:59:11;;;;;;;3.35;3.15;;;;;;;17.44;83.33;101689.72;5058029;28;20020;-71
2021/07/09 03:01:40;;;;;;;3.83;3.47;;;;;;;17.42;83.16;101683.63;5074374;28;20047;-72
2021/07/09 03:04:09;;;;;;;3.55;3.22;;;;;;;17.33;83.94;101680.34;5058051;28;20024;-72
2021/07/09 03:06:34;;;;;;;3.88;3.30;;;;;;;17.35;83.72;101678.53;5057757;28;20060;-71
2021/07/09 03:09:01;;;;;;;3.55;3.33;;;;;;;17.16;84.95;101682.59;5074431;28;20385;-72
2021/07/09 03:11:27;;;;;;;3.42;3.22;;;;;;;17.18;85.05;101676.38;5073903;28;20040;-72
2021/07/09 03:13:52;;;;;;;4.13;3.05;;;;;;;17.22;84.14;101669.25;5075700;28;20036;-72
2021/07/09 03:16:17;;;;;;;3.10;2.75;;;;;;;17.17;85.33;101668.50;5057694;28;20034;-72
2021/07/09 03:18:43;;;;;;;3.90;3.60;;;;;;;17.12;85.46;101665.97;5058077;28;20037;-72
2021/07/09 03:21:08;;;;;;;4.95;3.28;;;;;;;17.29;84.70;101667.25;5040476;28;20024;-71
2021/07/09 03:23:33;;;;;;;3.35;3.13;;;;;;;17.24;85.06;101667.41;5057267;28;20025;-71
2021/07/09 03:26:00;;;;;;;6.55;4.43;;;;;;;17.01;86.39;101673.34;5075183;28;20051;-72
2021/07/09 03:28:26;;;;;;;4.72;4.07;;;;;;;17.18;85.50;101675.53;5057807;28;20047;-72
2021/07/09 03:30:51;;;;;;;9.43;3.90;;;;;;;17.21;85.93;101681.56;5057291;28;20033;-71
2021/07/09 03:33:18;;;;;;;6.22;4.68;;;;;;;17.22;85.52;101677.16;5056550;28;20044;-72
2021/07/09 03:35:43;;;;;;;7.63;4.75;;;;;;;17.21;86.19;101680.72;5056214;28;20430;-72
2021/07/09 03:38:08;;;;;;;4.70;4.40;;;;;;;17.31;85.32;101679.50;5057587;28;20050;-72
2021/07/09 03:40:34;;;;;;;4.78;3.83;;;;;;;17.23;85.73;101684.16;5057272;28;20020;-72
2021/07/09 03:43:00;;;;;;;5.80;4.47;;;;;;;16.99;86.39;101675.16;5040701;28;20043;-72
2021/07/09 03:45:25;;;;;;;4.63;4.30;;;;;;;17.12;86.57;101673.03;5057771;28;20032;-72
2021/07/09 03:47:51;;;;;;;4.05;3.78;;;;;;;17.34;85.52;101673.28;5057391;28;20429;-72
2021/07/09 03:50:16;;;;;;;5.28;4.40;;;;;;;17.36;85.41;101669.69;5057269;28;20154;-72
2021/07/09 03:52:42;;;;;;;5.68;3.80;;;;;;;17.41;84.90;101666.94;5039317;28;20052;-72
2021/07/09 03:55:08;;;;;;;6.93;4.18;;;;;;;17.48;85.04;101663.19;5057197;28;20121;-72
2021/07/09 03:57:33;;;;;;;6.43;3.78;;;;;;;17.54;84.30;101657.72;5056772;28;20444;-72
2021/07/09 03:59:59;;;;;;;5.05;3.75;;;;;;;17.54;84.41;101656.84;5040348;28;20162;-72
2021/07/09 04:02:24;;;;;;;4.82;4.32;;;;;;;17.49;84.57;101653.47;5073990;28;20429;-72
2021/07/09 04:04:49;;;;;;;7.15;3.78;;;;;;;17.37;85.19;101655.59;5056832;28;20025;-72
2021/07/09 04:07:15;;;;;;;5.88;4.38;;;;;;;17.43;85.49;101651.03;5039556;28;20310;-72
2021/07/09 04:09:40;;;;;;;4.43;4.03;;;;;;;17.61;84.62;101641.69;5056734;28;20441;-72
2021/07/09 04:12:06;;;;;;;5.10;3.65;;;;;;;17.64;84.45;101636.31;5039852;28;20069;-72
2021/07/09 04:14:32;;;;;;;8.60;3.85;;;;;;;17.77;83.80;101631.53;5056415;28;20078;-72
2021/07/09 04:16:57;;;;;;;4.35;3.85;;;;;;;17.73;83.50;101621.03;5039979;28;20028;-72
2021/07/09 04:19:22;;;;;;;4.28;4.00;;;;;;;17.69;83.11;101615.91;5056393;28;20027;-72
2021/07/09 04:21:48;;;;;;;4.40;3.90;;;;;;;17.55;84.19;101616.34;5056427;28;20433;-72
2021/07/09 04:24:13;;;;;;;3.50;3.30;;;;;;;17.63;83.43;101618.72;5073933;28;20028;-72
2021/07/09 04:26:38;;;;;;;4.15;3.33;;;;;;;17.64;84.24;101615.16;5074157;28;20021;-72
2021/07/09 04:29:06;;;;;;;6.28;4.40;;;;;;;17.56;84.53;101615.41;5047965;28;20032;-72
2021/07/09 04:31:31;;;;;;;3.75;3.53;;;;;;;17.54;85.17;101618.09;5056342;28;20103;-72
2021/07/09 04:33:57;;;;;;;4.63;4.32;;;;;;;17.53;85.64;101612.84;5039450;28;20111;-72
2021/07/09 04:36:22;;;;;;;7.43;4.28;;;;;;;17.44;86.34;101615.78;5039830;28;20032;-72
2021/07/09 04:38:47;;;;;;;5.22;3.90;;;;;;;17.55;85.23;101616.34;5056017;28;20604;-72
2021/07/09 04:41:13;;;;;;;4.18;3.83;;;;;;;17.43;86.12;101614.06;5039265;28;20028;-72
2021/07/09 04:43:39;;;;;;;4.28;3.88;;;;;;;17.55;85.85;101611.91;5039305;28;20020;-72
2021/07/09 04:46:05;;;;;;;4.82;4.35;;;;;;;17.57;85.49;101620.66;5055997;28;20059;-72
2021/07/09 04:48:31;;;;;;;5.78;3.88;;;;;;;17.61;85.17;101612.63;5056209;28;20135;-72
2021/07/09 04:50:56;;;;;;;4.00;3.75;;;;;;;17.65;84.96;101620.41;5074126;28;20025;-72
2021/07/09 04:53:21;;;;;;;4.55;4.22;;;;;;;17.71;84.53;101621.97;5056018;28;20025;-73
2021/07/09 04:55:47;;;;;;;6.35;3.85;;;;;;;17.58;85.36;101621.50;5055820;28;20028;-72
2021/07/09 04:58:12;;;;;;;6.75;4.63;;;;;;;17.65;84.96;101617.75;5039522;28;20115;-72
2021/07/09 05:00:37;;;;;;;4.72;4.28;;;;;;;17.67;84.94;101615.94;5055845;28;20021;-72
2021/07/09 05:03:03;;;;;;;5.43;3.90;;;;;;;17.79;84.86;101616.47;5056196;28;20044;-72
2021/07/09 05:05:28;;;;;;;4.95;4.47;;;;;;;17.87;83.92;101619.72;5077804;28;20329;-72
2021/07/09 05:07:53;;;;;;;4.90;4.47;;;;;;;17.92;84.22;101615.19;5059958;28;20040;-72
2021/07/09 05:10:19;;;;;;;4.55;4.15;;;;;;;17.97;83.62;101615.91;5059802;28;20024;-72
2021/07/09 05:12:44;;;;;;;5.25;4.47;;;;;;;17.64;85.33;101621.34;5043099;28;20638;-72
2021/07/09 05:15:10;;;;;;;4.72;4.43;;;;;;;17.82;84.66;101619.88;5043340;28;20397;-72
2021/07/09 05:17:35;;;;;;;7.50;4.78;;;;;;;17.51;86.32;101625.25;5043466;28;20024;-72
2021/07/09 05:20:01;;;;;;;4.65;4.20;;;;;;;17.79;85.44;101629.69;5077440;28;20030;-72
2021/07/09 05:22:26;;;;;;;4.95;4.45;;;;;;;17.72;85.91;101621.06;5059518;28;20059;-72
2021/07/09 05:24:54;;;;;;;4.82;4.43;;;;;;;17.74;85.28;101616.63;5059616;28;20561;-73
2021/07/09 05:27:20;;;;;;;5.93;4.03;;;;;;;17.99;84.33;101608.78;5077250;28;20384;-73
2021/07/09 05:29:46;;;;;;;5.15;4.80;;;;;;;17.79;84.89;101608.53;5076880;28;20097;-73
2021/07/09 05:32:11;;;;;;;5.18;4.65;;;;;;;17.94;83.82;101605.41;5076726;28;20113;-72
2021/07/09 05:34:36;;;;;;;5.18;4.80;;;;;;;18.10;82.65;101602.28;5077164;28;20020;-72
2021/07/09 05:37:03;;;;;;;4.90;4.50;;;;;;;18.15;82.62;101605.66;5077201;28;20166;-72
2021/07/09 05:39:28;;;;;;;4.82;4.40;;;;;;;18.27;82.44;101594.66;5059429;28;20070;-72
2021/07/09 05:41:53;;;;;;;5.90;5.10;;;;;;;18.32;81.87;101603.28;5058830;28;20036;-73
2021/07/09 05:44:19;;;;;;;5.30;4.80;;;;;;;18.51;81.02;101602.66;5059575;28;20025;-72
2021/07/09 05:46:44;;;;;;;6.43;4.57;;;;;;;18.60;80.36;101602.34;5076640;28;20322;-72
2021/07/09 05:49:09;;;;;;;4.82;4.38;;;;;;;18.50;80.68;101601.81;5059241;28;20030;-72
2021/07/09 05:51:35;;;;;;;7.70;4.47;;;;;;;18.57;81.05;101597.16;5058967;28;20035;-72
2021/07/09 05:54:00;;;;;;;7.55;4.47;;;;;;;18.38;82.80;101602.22;5056701;28;20024;-71
2021/07/09 05:56:25;;;;;;;5.40;4.57;;;;;;;18.66;80.14;101602.09;5057663;28;20032;-71
2021/07/09 05:58:51;;;;;;;5.10;4.40;;;;;;;18.67;80.30;101611.78;5058080;28;20096;-71
2021/07/09 06:01:16;;;;;;;4.63;4.15;;;;;;;18.53;81.34;101606.97;5057935;28;20922;-71
2021/07/09 06:03:41;;;;;;;4.25;3.85;;;;;;;18.59;81.06;101617.31;5075912;28;20027;-71
2021/07/09 06:06:07;;;;;;;4.20;3.80;;;;;;;18.77;80.62;101614.94;5059893;28;20048;-71
2021/07/09 06:08:32;;;;;;;4.15;3.80;;;;;;;18.78;80.72;101621.97;5058167;28;20421;-72
2021/07/09 06:10:58;;;;;;;4.32;3.95;;;;;;;18.66;81.02;101617.13;5041352;28;20035;-72
2021/07/09 06:13:23;;;;;;;8.45;4.00;;;;;;;18.77;81.23;101608.81;5076227;28;20129;-72
2021/07/09 06:15:49;;;;;;;4.07;3.72;;;;;;;18.85;80.85;101612.88;5057941;28;20035;-72
2021/07/09 06:18:14;;;;;;;4.55;3.92;;;;;;;18.90;80.30;101615.41;5057005;28;20043;-72
2021/07/09 06:20:39;;;;;;;4.00;3.60;;;;;;;18.89;80.42;101613.69;5058225;28;20028;-72
2021/07/09 06:23:05;;;;;;;8.88;4.10;;;;;;;18.84;79.02;101610.28;5040811;28;20020;-72
2021/07/09 06:25:30;;;;;;;4.45;4.00;;;;;;;18.85;79.78;101612.03;5075994;28;20024;-72
2021/07/09 06:27:56;;;;;;;7.10;3.83;;;;;;;18.82;80.32;101606.84;5058331;28;20380;-71
2021/07/09 06:30:21;;;;;;;4.03;3.83;;;;;;;18.45;81.88;101610.78;5075449;28;20036;-72
2021/07/09 06:32:46;;;;;;;3.38;3.17;;;;;;;18.43;82.11;101608.19;5074660;28;20032;-72
2021/07/09 06:35:12;;;;;;;4.18;3.78;;;;;;;18.59;81.30;101612.03;5058379;28;20028;-72
2021/07/09 06:37:38;;;;;;;3.58;3.35;;;;;;;18.68;80.64;101615.28;5041026;28;20044;-72
2021/07/09 06:40:05;;;;;;;3.30;3.10;;;;;;;18.82;79.96;101617.44;5058128;28;20100;-72
2021/07/09 06:42:30;;;;;;;3.75;3.42;;;;;;;18.82;79.06;101618.28;5074947;28;20036;-72
2021/07/09 06:44:55;;;;;;;5.28;3.33;;;;;;;18.89;78.35;101614.53;5043868;28;20029;-72
2021/07/09 06:47:20;;;;;;;4.57;3.15;;;;;;;18.85;79.13;101617.31;5032026;28;20025;-72
2021/07/09 06:49:46;;;;;;;3.50;2.92;;;;;;;18.60;80.05;101615.56;5049388;28;20029;-72
2021/07/09 06:52:11;;;;;;;3.10;2.90;;;;;;;18.64;80.39;101613.66;5057137;28;20032;-72
2021/07/09 06:54:37;;;;;;;4.97;3.70;;;;;;;18.88;79.51;101617.25;5071399;28;20067;-72
2021/07/09 06:57:02;;;;;;;4.05;3.75;;;;;;;18.91;79.67;101619.78;5074972;28;20107;-72
2021/07/09 06:59:27;;;;;;;5.55;3.60;;;;;;;18.80;81.02;101619.28;5057579;28;20029;-72
2021/07/09 07:01:54;;;;;;;4.75;3.58;;;;;;;18.95;80.52;101613.47;5030614;28;20040;-73
2021/07/09 07:04:19;;;;;;;6.25;3.47;;;;;;;18.92;80.56;101603.84;5076523;28;20039;-72
2021/07/09 07:06:44;;;;;;;4.95;3.85;;;;;;;18.95;80.62;101607.28;5075076;28;20024;-72
2021/07/09 07:09:10;;;;;;;3.53;3.22;;;;;;;19.11;80.52;101607.59;5048972;28;20426;-73
2021/07/09 07:11:35;;;;;;;5.05;3.65;;;;;;;18.83;80.72;101619.16;5066577;28;20052;-71
2021/07/09 07:14:00;;;;;;;4.65;3.33;;;;;;;18.93;80.30;101620.59;5056651;28;20430;-72
2021/07/09 07:16:26;;;;;;;4.43;3.38;;;;;;;18.96;80.10;101630.19;5072972;28;20016;-72
2021/07/09 07:18:51;;;;;;;5.20;3.28;;;;;;;18.81;81.06;101621.84;5072119;28;20321;-72
2021/07/09 07:21:16;;;;;;;5.97;3.78;;;;;;;18.54;82.09;101623.69;5054650;28;20323;-72
2021/07/09 07:23:41;;;;;;;3.42;3.15;;;;;;;18.53;82.49;101625.50;5055837;28;20421;-71
2021/07/09 07:26:07;;;;;;;4.28;3.97;;;;;;;18.61;82.25;101625.25;5055437;28;20441;-71
2021/07/09 07:28:32;;;;;;;5.82;3.17;;;;;;;18.76;80.68;101626.47;5072847;28;20025;-71
2021/07/09 07:30:57;;;;;;;3.38;3.08;;;;;;;18.77;80.75;101629.97;5069556;28;20052;-72
2021/07/09 07:33:23;;;;;;;4.22;3.00;;;;;;;18.84;79.92;101636.75;5074682;28;20016;-72
2021/07/09 07:35:48;;;;;;;3.55;3.25;;;;;;;18.70;80.72;101635.47;5050767;28;20063;-72
2021/07/09 07:38:14;;;;;;;5.47;2.95;;;;;;;18.94;79.67;101632.91;5037193;28;20040;-72
2021/07/09 07:40:39;;;;;;;10.35;2.92;;;;;;;18.74;79.54;101637.09;5020715;28;20021;-73
2021/07/09 07:43:05;;;;;;;2.88;2.42;;;;;;;18.89;78.56;101630.41;5053214;28;20029;-73
2021/07/09 07:45:31;;;;;;;3.08;2.60;;;;;;;19.12;76.53;101630.50;5039478;28;20081;-78
2021/07/09 07:47:57;;;;;;;3.13;2.67;;;;;;;19.07;76.37;101634.19;5051945;28;20020;-78
2021/07/09 07:50:22;;;;;;;2.55;2.42;;;;;;;19.10;76.56;101638.47;5040452;28;20323;-74
2021/07/09 07:52:49;;;;;;;5.10;2.13;;;;;;;19.22;75.32;101629.22;5072532;28;20048;-71
2021/07/09 07:55:14;;;;;;;2.78;2.60;;;;;;;19.22;75.06;101632.75;5074449;28;20024;-74
2021/07/09 07:57:39;;;;;;;3.42;2.63;;;;;;;19.09;75.53;101632.34;5054038;28;20021;-71
2021/07/09 08:00:05;;;;;;;5.30;2.65;;;;;;;19.22;74.63;101629.22;5067117;28;20028;-73
2021/07/09 08:02:31;;;;;;;4.53;2.63;;;;;;;19.03;75.39;101632.59;5049973;28;20017;-72
2021/07/09 08:04:56;;;;;;;2.60;2.40;;;;;;;19.26;74.49;101628.19;5066401;28;20029;-74
2021/07/09 08:07:21;;;;;;;3.95;2.30;;;;;;;18.88;75.40;101622.53;5045913;28;20308;-77
2021/07/09 08:09:47;;;;;;;2.92;2.72;;;;;;;18.90;76.64;101631.28;5035275;28;20025;-73
2021/07/09 08:12:13;;;;;;;3.92;2.30;;;;;;;18.95;75.46;101629.34;5058325;28;20049;-74
2021/07/09 08:14:38;;;;;;;4.93;2.25;;;;;;;19.14;74.39;101628.66;5072535;28;20029;-75
2021/07/09 08:17:05;;;;;;;2.40;2.20;;;;;;;19.21;75.42;101636.31;5049919;28;20040;-75
2021/07/09 08:19:30;;;;;;;2.78;2.58;;;;;;;18.99;76.12;101638.03;5034104;28;20391;-76
2021/07/09 08:21:55;;;;;;;2.30;2.10;;;;;;;19.09;76.33;101640.28;5043589;28;20052;-74
2021/07/09 08:24:21;;;;;;;2.03;1.92;;;;;;;19.32;74.81;101646.50;5040524;28;20029;-76
2021/07/09 08:26:46;;;;;;;5.53;2.20;;;;;;;19.34;75.28;101646.44;5036406;28;20039;-75
2021/07/09 08:29:12;;;;;;;3.75;2.20;;;;;;;19.28;74.55;101644.91;5043962;28;20028;-75
2021/07/09 08:31:37;;;;;;;2.47;2.17;;;;;;;19.13;75.63;101643.69;5034194;28;20418;-72
2021/07/09 08:34:03;;;;;;;2.58;2.38;;;;;;;19.01;74.58;101639.69;5060899;28;20055;-72
2021/07/09 08:36:28;;;;;;;2.78;1.90;;;;;;;19.51;72.84;101635.19;5072796;28;20141;-73
2021/07/09 08:38:54;;;;;;;3.28;2.10;;;;;;;19.48;73.31;101644.13;5071596;28;20391;-73
2021/07/09 08:41:20;;;;;;;2.28;2.00;;;;;;;19.30;74.39;101645.69;5055354;28;20024;-77
2021/07/09 08:43:46;;;;;;;2.50;2.30;;;;;;;19.31;74.40;101649.22;5072535;28;20036;-77
2021/07/09 08:46:12;;;;;;;2.88;2.50;;;;;;;19.50;72.71;101641.44;5055431;28;20093;-76
2021/07/09 08:48:39;;;;;;;3.17;2.25;;;;;;;19.05;75.37;101643.97;5056478;28;20387;-78
2021/07/09 08:51:04;;;;;;;2.38;2.20;;;;;;;19.35;73.31;101641.09;5042433;28;20052;-74
2021/07/09 08:53:29;;;;;;;2.15;2.03;;;;;;;19.72;72.68;101642.31;5052967;28;20020;-70
2021/07/09 08:55:55;;;;;;;2.75;2.50;;;;;;;19.87;72.12;101645.31;5071210;28;20345;-71
2021/07/09 08:58:21;;;;;;;3.05;1.80;;;;;;;19.95;71.53;101643.22;5071194;28;20115;-70
2021/07/09 09:00:46;;;;;;;2.25;1.85;;;;;;;19.84;72.23;101641.00;5072124;28;20035;-70
2021/07/09 09:03:20;;;;;;;2.33;2.13;;;;;;;19.97;71.53;101630.75;5053226;28;20042;-70
2021/07/09 09:05:46;;;;;;;2.58;2.25;;;;;;;20.01;70.79;101627.03;5046491;28;20040;-70
2021/07/09 09:08:13;;;;;;;6.05;2.70;;;;;;;19.54;73.40;101627.16;5059847;28;20040;-70
2021/07/09 09:10:50;;;;;;;6.55;2.00;;;;;;;19.99;71.28;101628.91;5059759;28;20098;-70
2021/07/09 09:13:17;;;;;;;2.45;2.17;;;;;;;20.05;70.23;101627.78;5043372;28;20027;-74
2021/07/09 09:15:46;;;;;;;4.40;1.83;;;;;;;20.17;70.20;101621.13;5033724;28;20024;-74
2021/07/09 09:18:22;;;;;;;2.83;2.03;;;;;;;19.80;72.95;101627.91;5053803;28;20082;-74
2021/07/09 09:21:23;;;;;;;3.75;2.33;;;;;;;20.12;70.98;101618.63;5068432;28;20020;-69
2021/07/09 09:23:51;;;;;;;5.57;3.05;;;;;;;20.04;69.80;101613.66;5051937;28;20347;-73
2021/07/09 09:26:42;;;;;;;1.90;1.80;;;;;;;20.18;70.58;101622.81;5068833;28;20449;-72
2021/07/09 09:29:24;;;;;;;3.17;2.10;;;;;;;20.81;68.42;101614.84;5070312;28;20016;-71
2021/07/09 09:31:50;;;;;;;5.40;2.03;;;;;;;20.42;69.38;101618.25;5069624;28;20025;-79
2021/07/09 09:34:15;;;;;;;4.85;2.35;;;;;;;20.55;69.61;101630.09;5047098;28;20445;-74
2021/07/09 09:36:57;;;;;;;3.10;2.20;;;;;;;20.61;68.51;101613.03;5056742;28;20312;-76
2021/07/09 09:39:25;;;;;;;3.88;2.22;;;;;;;20.62;68.71;101613.91;5048063;28;20024;-70
2021/07/09 09:42:09;;;;;;;2.63;2.17;;;;;;;20.56;68.23;101604.38;5064119;28;20023;-70
2021/07/09 09:44:34;;;;;;;2.38;2.28;;;;;;;20.38;69.13;101614.91;5068326;28;20020;-70
2021/07/09 09:47:18;;;;;;;2.33;2.13;;;;;;;20.50;68.71;101617.94;5068859;28;20036;-70
2021/07/09 09:49:44;;;;;;;2.50;2.30;;;;;;;20.44;68.82;101619.94;5053925;28;20074;-70
2021/07/09 09:52:10;;;;;;;2.83;2.15;;;;;;;20.42;69.38;101615.63;5047749;28;20040;-70
2021/07/09 09:54:36;;;;;;;2.17;1.98;;;;;;;20.13;69.99;101614.22;5051559;28;20025;-70
2021/07/09 09:57:01;;;;;;;2.40;2.10;;;;;;;20.36;69.93;101611.44;5057560;28;20104;-70
2021/07/09 09:59:27;;;;;;;2.38;2.28;;;;;;;20.41;69.70;101609.47;5058558;28;20051;-75
2021/07/09 10:01:56;;;;;;;2.22;2.03;;;;;;;20.12;70.96;101620.44;5041456;28;20061;-73
2021/07/09 10:04:23;;;;;;;5.03;2.20;;;;;;;20.18;70.79;101612.22;5071974;28;20032;-74
2021/07/09 10:06:49;;;;;;;4.10;2.58;;;;;;;20.27;69.34;101606.53;5075876;28;20019;-74
2021/07/09 10:09:15;;;;;;;2.72;2.30;;;;;;;20.25;69.66;101603.09;5074659;28;20024;-74
2021/07/09 10:11:44;;;;;;;2.90;2.22;;;;;;;20.20;69.96;101605.06;5075707;28;20020;-75
2021/07/09 10:14:12;;;;;;;2.25;2.15;;;;;;;20.13;70.79;101593.00;5053013;28;20374;-74
2021/07/09 10:16:38;;;;;;;3.33;1.98;;;;;;;20.33;70.26;101600.09;5037573;28;20017;-74
2021/07/09 10:19:07;;;;;;;3.47;2.70;;;;;;;20.14;71.60;101597.34;5054667;28;20029;-74
2021/07/09 10:21:32;;;;;;;2.10;2.00;;;;;;;20.50;70.14;101592.25;5037592;28;20300;-75
2021/07/09 10:23:58;;;;;;;2.00;1.80;;;;;;;20.40;71.03;101585.66;5054508;28;20029;-75
2021/07/09 10:26:24;;;;;;;2.50;2.40;;;;;;;20.43;70.45;101585.50;5054930;28;20055;-75
2021/07/09 10:29:13;;;;;;;3.38;2.00;;;;;;;20.32;71.45;101585.97;5054691;28;20330;-74
2021/07/09 10:31:40;;;;;;;3.00;2.45;;;;;;;20.31;69.66;101586.03;5053870;28;20465;-74
2021/07/09 10:34:30;;;;;;;2.45;2.28;;;;;;;20.50;69.92;101579.00;5045039;28;20051;-74
2021/07/09 10:37:01;;;;;;;2.70;2.50;;;;;;;20.26;71.02;101587.09;5068439;28;20107;-74
2021/07/09 10:39:30;;;;;;;4.55;2.80;;;;;;;20.31;70.89;101586.88;5057616;28;20029;-75
2021/07/09 10:41:56;;;;;;;2.40;2.30;;;;;;;20.41;70.14;101590.88;5067945;28;20055;-74
2021/07/09 10:44:21;;;;;;;2.65;1.90;;;;;;;20.37;71.22;101586.63;5055951;28;20101;-84
2021/07/09 10:46:47;;;;;;;2.90;2.20;;;;;;;20.61;69.18;101578.53;5047874;28;20050;-82
2021/07/09 10:49:51;;;;;;;4.82;2.13;;;;;;;20.42;69.62;101574.03;5064773;28;20043;-76
2021/07/09 10:52:41;;;;;;;5.65;2.50;;;;;;;20.21;70.01;101582.91;5055747;28;20489;-75
2021/07/09 10:55:25;;;;;;;2.40;2.20;;;;;;;20.19;70.62;101582.13;5048756;28;20020;-74
2021/07/09 10:58:17;;;;;;;2.38;2.22;;;;;;;19.93;71.45;101581.41;5052569;28;20021;-76
2021/07/09 11:00:58;;;;;;;3.13;2.35;;;;;;;19.95;70.97;101578.69;5071321;28;20110;-74
2021/07/09 11:03:31;;;;;;;3.78;2.40;;;;;;;19.85;72.20;101572.91;5073615;28;20035;-77
2021/07/09 11:06:12;;;;;;;3.78;2.55;;;;;;;19.91;71.99;101575.34;5078710;28;20020;-82
2021/07/09 11:08:51;;;;;;;2.45;2.35;;;;;;;20.06;72.01;101582.63;5065465;28;20373;-77
2021/07/09 11:11:36;;;;;;;2.28;2.08;;;;;;;20.01;72.51;101581.94;5036347;28;20028;-74
2021/07/09 11:14:09;;;;;;;2.28;2.10;;;;;;;19.95;71.85;101584.88;5052799;28;20500;-74
2021/07/09 11:16:43;;;;;;;3.42;2.20;;;;;;;20.24;71.29;101585.44;5037234;28;20033;-69
2021/07/09 11:19:19;;;;;;;2.58;2.42;;;;;;;20.17;71.14;101586.63;5065753;28;20024;-68
2021/07/09 11:21:47;;;;;;;2.53;2.33;;;;;;;19.99;72.38;101589.13;5064546;28;20029;-68
2021/07/09 11:24:17;;;;;;;3.65;2.30;;;;;;;20.13;71.19;101585.03;5062575;28;20103;-72